createdAt,value
2019-02-21T00:00:48.324Z,0.00
2019-02-21T00:01:48.318Z,0.00
2019-02-21T00:02:48.364Z,0.00
2019-02-21T00:03:48.385Z,0.00
2019-02-21T00:04:48.394Z,0.00
2019-02-21T00:05:48.423Z,0.00
2019-02-21T00:06:48.447Z,0.00
2019-02-21T00:07:48.474Z,0.00
2019-02-21T00:08:48.499Z,0.00
2019-02-21T00:09:48.526Z,0.00
2019-02-21T00:10:48.549Z,0.00
2019-02-21T00:11:48.574Z,0.00
2019-02-21T00:12:48.600Z,0.00
2019-02-21T00:13:48.627Z,0.00
2019-02-21T00:14:48.657Z,0.00
2019-02-21T00:15:48.679Z,0.00
2019-02-21T00:16:48.704Z,0.00
2019-02-21T00:17:48.729Z,0.00
2019-02-21T00:18:48.807Z,0.00
2019-02-21T00:19:48.784Z,0.00
2019-02-21T00:20:48.807Z,0.00
2019-02-21T00:21:48.834Z,0.00
2019-02-21T00:22:48.908Z,0.00
2019-02-21T00:23:48.883Z,0.00
2019-02-21T00:24:48.910Z,0.00
2019-02-21T00:25:48.935Z,0.00
2019-02-21T00:26:48.963Z,0.00
2019-02-21T00:27:48.992Z,0.00
2019-02-21T00:28:49.011Z,0.00
2019-02-21T00:29:49.050Z,0.00
2019-02-21T00:30:49.064Z,0.00
2019-02-21T00:31:49.092Z,0.00
2019-02-21T00:32:49.116Z,0.00
2019-02-21T00:33:49.140Z,0.00
2019-02-21T00:34:49.166Z,0.00
2019-02-21T00:35:49.191Z,0.00
2019-02-21T00:36:49.218Z,0.00
2019-02-21T00:37:49.243Z,0.00
2019-02-21T00:38:49.273Z,0.00
2019-02-21T00:39:49.343Z,0.00
2019-02-21T00:40:49.344Z,0.00
2019-02-21T00:41:49.345Z,0.00
2019-02-21T00:42:49.370Z,0.00
2019-02-21T00:43:49.397Z,0.00
2019-02-21T00:44:49.422Z,0.00
2019-02-21T00:45:49.449Z,0.00
2019-02-21T00:47:49.497Z,0.00
2019-02-21T00:48:49.525Z,0.00
2019-02-21T00:49:49.548Z,0.00
2019-02-21T00:51:49.599Z,0.00
2019-02-21T00:52:49.627Z,0.00
2019-02-21T00:55:49.705Z,0.00
2019-02-21T00:56:49.728Z,0.00
2019-02-21T00:57:49.756Z,0.00
2019-02-21T00:58:49.779Z,0.00
2019-02-21T00:59:50.893Z,0.00
2019-02-21T01:00:49.835Z,0.00
2019-02-21T01:04:25.741Z,0.00
2019-02-21T01:05:25.767Z,0.00
2019-02-21T01:06:25.792Z,0.00
2019-02-21T01:07:25.818Z,0.00
2019-02-21T01:08:25.845Z,0.00
2019-02-21T01:09:25.909Z,0.00
2019-02-21T01:10:25.893Z,0.00
2019-02-21T01:11:25.919Z,0.00
2019-02-21T01:12:25.943Z,0.00
2019-02-21T01:13:25.968Z,0.00
2019-02-21T01:14:26.007Z,0.00
2019-02-21T01:15:26.026Z,0.00
2019-02-21T01:16:26.046Z,0.00
2019-02-21T01:17:26.070Z,0.00
2019-02-21T01:18:26.095Z,0.00
2019-02-21T01:19:26.123Z,0.00
2019-02-21T01:20:26.147Z,0.00
2019-02-21T01:21:26.171Z,0.00
2019-02-21T01:22:26.198Z,0.00
2019-02-21T01:23:26.223Z,0.00
2019-02-21T01:24:26.249Z,0.00
2019-02-21T01:25:26.274Z,0.00
2019-02-21T01:26:26.300Z,0.00
2019-02-21T01:27:26.325Z,0.00
2019-02-21T01:28:26.353Z,0.00
2019-02-21T01:29:26.374Z,0.00
2019-02-21T01:30:26.400Z,0.00
2019-02-21T01:31:26.427Z,0.00
2019-02-21T01:32:26.449Z,0.00
2019-02-21T01:33:26.486Z,0.00
2019-02-21T01:34:26.502Z,0.00
2019-02-21T01:35:26.527Z,0.00
2019-02-21T01:36:26.552Z,0.00
2019-02-21T01:37:26.578Z,0.00
2019-02-21T01:38:26.602Z,0.00
2019-02-21T01:39:26.627Z,0.00
2019-02-21T01:40:26.652Z,0.00
2019-02-21T01:41:26.677Z,0.00
2019-02-21T01:42:26.703Z,0.00
2019-02-21T01:43:26.730Z,0.00
2019-02-21T01:44:26.755Z,0.00
2019-02-21T01:45:26.981Z,0.00
2019-02-21T01:46:26.806Z,0.00
2019-02-21T01:47:26.831Z,0.00
2019-02-21T01:48:26.854Z,0.00
2019-02-21T01:49:26.891Z,0.00
2019-02-21T01:50:26.906Z,0.00
2019-02-21T01:51:26.934Z,0.00
2019-02-21T01:52:26.957Z,0.00
2019-02-21T01:53:26.985Z,0.00
2019-02-21T01:54:27.008Z,0.00
2019-02-21T01:55:27.033Z,0.00
2019-02-21T01:56:27.059Z,0.00
2019-02-21T01:57:27.083Z,0.00
2019-02-21T01:58:27.109Z,0.00
2019-02-21T01:59:27.133Z,0.00
2019-02-21T02:01:27.184Z,0.00
2019-02-21T02:02:27.227Z,0.00
2019-02-21T02:03:27.235Z,0.00
2019-02-21T02:04:27.260Z,0.00
2019-02-21T02:05:27.338Z,0.00
2019-02-21T02:06:27.311Z,0.00
2019-02-21T02:07:27.336Z,0.00
2019-02-21T02:08:27.369Z,0.00
2019-02-21T02:09:27.588Z,0.00
2019-02-21T02:10:27.411Z,0.00
2019-02-21T02:11:27.443Z,0.00
2019-02-21T02:12:27.462Z,0.00
2019-02-21T02:13:27.487Z,0.00
2019-02-21T02:14:27.512Z,0.00
2019-02-21T02:15:27.743Z,0.00
2019-02-21T02:16:27.561Z,0.00
2019-02-21T02:17:27.789Z,0.00
2019-02-21T02:18:27.613Z,0.00
2019-02-21T02:19:27.637Z,0.00
2019-02-21T02:20:27.664Z,0.00
2019-02-21T02:21:27.688Z,0.00
2019-02-21T02:22:27.714Z,0.00
2019-02-21T02:23:27.740Z,0.00
2019-02-21T02:24:27.765Z,0.00
2019-02-21T02:25:27.790Z,0.00
2019-02-21T02:26:27.814Z,0.00
2019-02-21T02:27:27.840Z,0.00
2019-02-21T02:28:27.864Z,0.00
2019-02-21T02:29:27.890Z,0.00
2019-02-21T02:30:27.926Z,0.00
2019-02-21T02:31:27.958Z,0.00
2019-02-21T02:32:27.966Z,0.00
2019-02-21T02:33:27.996Z,0.00
2019-02-21T02:34:28.016Z,0.00
2019-02-21T02:35:28.254Z,0.00
2019-02-21T02:36:28.066Z,0.00
2019-02-21T02:37:28.090Z,0.00
2019-02-21T02:38:28.116Z,0.00
2019-02-21T02:39:28.142Z,0.00
2019-02-21T02:40:28.167Z,0.00
2019-02-21T02:41:28.191Z,0.00
2019-02-21T02:42:28.218Z,0.00
2019-02-21T02:43:28.244Z,0.00
2019-02-21T02:44:28.266Z,0.00
2019-02-21T02:45:28.291Z,0.00
2019-02-21T02:46:28.317Z,0.00
2019-02-21T02:47:28.342Z,0.00
2019-02-21T02:48:28.367Z,0.00
2019-02-21T02:49:28.401Z,0.00
2019-02-21T02:50:28.419Z,0.00
2019-02-21T02:51:28.442Z,0.00
2019-02-21T02:52:28.465Z,0.00
2019-02-21T02:53:28.491Z,0.00
2019-02-21T02:54:28.517Z,0.00
2019-02-21T02:55:28.541Z,0.00
2019-02-21T02:56:28.580Z,0.00
2019-02-21T02:57:28.595Z,0.00
2019-02-21T02:58:28.618Z,0.00
2019-02-21T02:59:40.066Z,0.00
2019-02-21T03:00:28.669Z,0.00
2019-02-21T03:01:34.869Z,0.00
2019-02-21T03:02:28.719Z,0.00
2019-02-21T03:03:28.756Z,0.00
2019-02-21T03:04:29.046Z,0.00
2019-02-21T03:05:28.798Z,0.00
2019-02-21T03:06:28.817Z,0.00
2019-02-21T03:07:28.842Z,0.00
2019-02-21T03:08:28.865Z,0.00
2019-02-21T03:09:28.897Z,0.00
2019-02-21T03:10:28.916Z,0.00
2019-02-21T03:11:28.941Z,0.00
2019-02-21T03:12:28.998Z,0.00
2019-02-21T03:13:28.998Z,0.00
2019-02-21T03:14:29.018Z,0.00
2019-02-21T03:15:29.128Z,0.00
2019-02-21T03:16:29.065Z,0.00
2019-02-21T03:17:29.091Z,0.00
2019-02-21T03:18:29.116Z,0.00
2019-02-21T03:19:29.144Z,0.00
2019-02-21T03:20:29.166Z,0.00
2019-02-21T03:21:29.190Z,0.00
2019-02-21T03:22:29.215Z,0.00
2019-02-21T03:23:29.242Z,0.00
2019-02-21T03:24:29.265Z,0.00
2019-02-21T03:25:29.291Z,0.00
2019-02-21T03:26:29.314Z,0.00
2019-02-21T03:27:29.342Z,0.00
2019-02-21T03:28:29.363Z,0.00
2019-02-21T03:29:29.391Z,0.00
2019-02-21T03:30:29.417Z,0.00
2019-02-21T03:31:29.453Z,0.00
2019-02-21T03:32:29.465Z,0.00
2019-02-21T03:33:29.493Z,0.00
2019-02-21T03:34:29.522Z,0.00
2019-02-21T03:35:29.543Z,0.00
2019-02-21T03:36:29.565Z,0.00
2019-02-21T03:37:29.589Z,0.00
2019-02-21T03:38:29.629Z,0.00
2019-02-21T03:39:29.639Z,0.00
2019-02-21T03:40:29.672Z,0.00
2019-02-21T03:41:29.687Z,0.00
2019-02-21T03:42:29.735Z,0.00
2019-02-21T03:43:29.744Z,0.00
2019-02-21T03:44:29.762Z,0.00
2019-02-21T03:45:29.790Z,0.00
2019-02-21T03:46:29.811Z,0.00
2019-02-21T03:47:29.837Z,0.00
2019-02-21T03:48:29.867Z,0.00
2019-02-21T03:49:29.886Z,0.00
2019-02-21T03:50:29.910Z,0.00
2019-02-21T03:51:29.936Z,0.00
2019-02-21T03:52:29.959Z,0.00
2019-02-21T03:53:29.986Z,0.00
2019-02-21T03:54:30.025Z,0.00
2019-02-21T03:55:30.035Z,0.00
2019-02-21T03:56:30.058Z,0.00
2019-02-21T03:57:30.083Z,0.00
2019-02-21T03:58:30.111Z,0.00
2019-02-21T03:59:30.133Z,0.00
2019-02-21T04:00:30.159Z,0.00
2019-02-21T04:01:30.198Z,0.00
2019-02-21T04:02:30.212Z,0.00
2019-02-21T04:03:31.960Z,0.00
2019-02-21T04:04:30.256Z,0.00
2019-02-21T04:05:30.307Z,0.00
2019-02-21T04:06:30.371Z,0.00
2019-02-21T04:07:30.333Z,0.00
2019-02-21T04:08:30.358Z,0.00
2019-02-21T04:09:30.381Z,0.00
2019-02-21T04:10:30.405Z,0.00
2019-02-21T04:11:30.430Z,0.00
2019-02-21T04:12:30.454Z,0.00
2019-02-21T04:13:30.491Z,0.00
2019-02-21T04:14:30.504Z,0.00
2019-02-21T04:15:30.532Z,0.00
2019-02-21T04:16:30.555Z,0.00
2019-02-21T04:17:30.579Z,0.00
2019-02-21T04:18:30.602Z,0.00
2019-02-21T04:19:30.629Z,0.00
2019-02-21T04:20:30.656Z,0.00
2019-02-21T04:21:30.677Z,0.00
2019-02-21T04:22:30.702Z,0.00
2019-02-21T04:23:30.742Z,0.00
2019-02-21T04:24:30.751Z,0.00
2019-02-21T04:25:30.775Z,0.00
2019-02-21T04:26:30.800Z,0.00
2019-02-21T04:27:30.830Z,0.00
2019-02-21T04:28:30.849Z,0.00
2019-02-21T04:29:30.874Z,0.00
2019-02-21T04:30:30.899Z,0.00
2019-02-21T04:31:30.924Z,0.00
2019-02-21T04:32:30.947Z,0.00
2019-02-21T04:33:30.972Z,0.00
2019-02-21T04:34:30.996Z,0.00
2019-02-21T04:35:31.022Z,0.00
2019-02-21T04:36:31.047Z,0.00
2019-02-21T04:37:31.074Z,0.00
2019-02-21T04:38:31.099Z,0.00
2019-02-21T04:39:31.121Z,0.00
2019-02-21T04:40:31.145Z,0.00
2019-02-21T04:41:31.170Z,0.00
2019-02-21T04:42:31.203Z,0.00
2019-02-21T04:43:31.221Z,0.00
2019-02-21T04:44:31.242Z,0.00
2019-02-21T04:45:31.267Z,0.00
2019-02-21T04:46:31.294Z,0.00
2019-02-21T04:47:31.317Z,0.00
2019-02-21T04:48:31.342Z,0.00
2019-02-21T04:49:31.366Z,0.00
2019-02-21T04:50:31.391Z,0.00
2019-02-21T04:51:31.414Z,0.00
2019-02-21T04:52:31.438Z,0.00
2019-02-21T04:53:31.469Z,0.00
2019-02-21T04:54:31.487Z,0.00
2019-02-21T04:55:31.532Z,0.00
2019-02-21T04:56:31.558Z,0.00
2019-02-21T04:57:31.563Z,0.00
2019-02-21T04:58:31.587Z,0.00
2019-02-21T04:59:31.610Z,0.00
2019-02-21T05:00:31.633Z,0.00
2019-02-21T05:01:31.670Z,0.00
2019-02-21T05:02:31.684Z,0.00
2019-02-21T05:03:31.709Z,0.00
2019-02-21T05:04:31.733Z,0.00
2019-02-21T05:05:31.761Z,0.00
2019-02-21T05:06:31.805Z,0.00
2019-02-21T05:07:31.806Z,0.00
2019-02-21T05:08:31.831Z,0.00
2019-02-21T05:09:31.855Z,0.00
2019-02-21T05:10:31.883Z,0.00
2019-02-21T05:11:31.911Z,0.00
2019-02-21T05:12:31.936Z,0.00
2019-02-21T05:13:33.790Z,0.00
2019-02-21T05:14:31.979Z,0.00
2019-02-21T05:15:32.004Z,0.00
2019-02-21T05:16:32.029Z,0.00
2019-02-21T05:17:32.053Z,0.00
2019-02-21T05:18:32.086Z,0.00
2019-02-21T05:19:32.102Z,0.00
2019-02-21T05:20:32.124Z,0.00
2019-02-21T05:21:32.149Z,0.00
2019-02-21T05:22:32.178Z,0.00
2019-02-21T05:23:32.199Z,0.00
2019-02-21T05:24:32.223Z,0.00
2019-02-21T05:25:32.248Z,0.00
2019-02-21T05:26:32.273Z,0.00
2019-02-21T05:27:32.296Z,0.00
2019-02-21T05:28:32.320Z,0.00
2019-02-21T05:29:32.346Z,0.00
2019-02-21T05:30:32.370Z,0.00
2019-02-21T05:31:32.395Z,0.00
2019-02-21T05:32:40.684Z,0.00
2019-02-21T05:33:32.444Z,0.00
2019-02-21T05:34:32.469Z,0.00
2019-02-21T05:35:32.493Z,0.00
2019-02-21T05:36:32.517Z,0.00
2019-02-21T05:37:32.543Z,0.00
2019-02-21T05:38:32.577Z,0.00
2019-02-21T05:39:32.592Z,0.00
2019-02-21T05:40:32.694Z,0.00
2019-02-21T05:41:32.640Z,0.00
2019-02-21T05:42:32.666Z,0.00
2019-02-21T05:43:32.690Z,0.00
2019-02-21T05:44:33.654Z,0.00
2019-02-21T05:45:32.741Z,0.00
2019-02-21T05:46:32.775Z,0.00
2019-02-21T05:47:32.788Z,0.00
2019-02-21T05:48:32.811Z,0.00
2019-02-21T05:49:32.837Z,0.00
2019-02-21T05:50:32.860Z,0.00
2019-02-21T05:51:32.884Z,0.00
2019-02-21T05:52:32.917Z,0.00
2019-02-21T05:53:32.934Z,0.00
2019-02-21T05:54:32.956Z,0.00
2019-02-21T05:55:32.982Z,0.00
2019-02-21T05:56:33.006Z,0.00
2019-02-21T05:57:33.033Z,4.00
2019-02-21T05:58:33.054Z,4.00
2019-02-21T05:59:33.079Z,4.00
2019-02-21T06:00:33.102Z,4.00
2019-02-21T06:01:33.128Z,4.00
2019-02-21T06:02:33.153Z,4.00
2019-02-21T06:03:35.999Z,8.00
2019-02-21T06:04:33.201Z,8.00
2019-02-21T06:05:33.224Z,12.00
2019-02-21T06:06:33.250Z,12.00
2019-02-21T06:07:33.275Z,16.00
2019-02-21T06:08:33.377Z,20.00
2019-02-21T06:09:33.323Z,24.00
2019-02-21T06:10:33.347Z,28.00
2019-02-21T06:11:35.062Z,32.00
2019-02-21T06:12:34.153Z,40.00
2019-02-21T06:13:33.421Z,44.00
2019-02-21T06:14:33.446Z,52.00
2019-02-21T06:15:33.470Z,64.00
2019-02-21T06:16:33.495Z,76.00
2019-02-21T06:17:34.257Z,88.00
2019-02-21T06:18:33.542Z,108.00
2019-02-21T06:19:33.567Z,128.00
2019-02-21T06:20:33.942Z,144.00
2019-02-21T06:21:33.617Z,168.00
2019-02-21T06:22:33.646Z,192.00
2019-02-21T06:23:33.666Z,224.00
2019-02-21T06:24:33.689Z,248.00
2019-02-21T06:25:33.716Z,280.00
2019-02-21T06:26:33.738Z,308.00
2019-02-21T06:27:34.624Z,340.00
2019-02-21T06:28:33.787Z,372.00
2019-02-21T06:29:34.189Z,408.00
2019-02-21T06:30:33.838Z,448.00
2019-02-21T06:31:33.866Z,488.00
2019-02-21T06:32:33.884Z,532.00
2019-02-21T06:33:33.910Z,576.00
2019-02-21T06:34:33.936Z,620.00
2019-02-21T06:35:33.959Z,668.00
2019-02-21T06:36:33.984Z,716.00
2019-02-21T06:37:34.010Z,760.00
2019-02-21T06:38:34.041Z,812.00
2019-02-21T06:39:34.060Z,864.00
2019-02-21T06:40:36.467Z,912.00
2019-02-21T06:41:34.108Z,964.00
2019-02-21T06:42:34.133Z,1012.00
2019-02-21T06:43:34.158Z,1064.00
2019-02-21T06:44:34.181Z,1120.00
2019-02-21T06:45:34.205Z,1176.00
2019-02-21T06:46:34.230Z,1240.00
2019-02-21T06:47:34.258Z,1296.00
2019-02-21T06:48:34.991Z,1360.00
2019-02-21T06:49:34.357Z,1416.00
2019-02-21T06:50:34.330Z,1480.00
2019-02-21T06:51:34.357Z,1536.00
2019-02-21T06:52:34.378Z,1592.00
2019-02-21T06:53:34.403Z,1656.00
2019-02-21T06:54:34.426Z,1708.00
2019-02-21T06:55:34.453Z,1772.00
2019-02-21T06:56:34.476Z,1832.00
2019-02-21T06:57:34.505Z,1892.00
2019-02-21T06:58:34.526Z,1964.00
2019-02-21T06:59:41.854Z,2036.00
2019-02-21T07:00:34.578Z,2108.00
2019-02-21T07:01:34.602Z,2176.00
2019-02-21T07:02:34.628Z,2252.00
2019-02-21T07:03:34.651Z,2332.00
2019-02-21T07:04:34.675Z,2404.00
2019-02-21T07:05:36.861Z,2488.00
2019-02-21T07:06:34.726Z,2564.00
2019-02-21T07:07:34.751Z,2644.00
2019-02-21T07:08:34.775Z,2728.00
2019-02-21T07:09:34.799Z,2804.00
2019-02-21T07:10:34.826Z,2876.00
2019-02-21T07:11:34.852Z,2960.00
2019-02-21T07:12:34.876Z,3044.00
2019-02-21T07:13:34.903Z,3124.00
2019-02-21T07:14:34.938Z,3212.00
2019-02-21T07:15:34.952Z,3292.00
2019-02-21T07:16:37.307Z,3372.00
2019-02-21T07:17:35.002Z,3448.00
2019-02-21T07:18:35.026Z,3532.00
2019-02-21T07:19:35.051Z,3616.00
2019-02-21T07:20:35.075Z,3696.00
2019-02-21T07:21:36.639Z,3784.00
2019-02-21T07:22:35.128Z,3864.00
2019-02-21T07:23:43.059Z,3948.00
2019-02-21T07:24:35.179Z,4040.00
2019-02-21T07:25:35.202Z,4120.00
2019-02-21T07:26:35.228Z,4208.00
2019-02-21T07:27:35.253Z,4324.00
2019-02-21T07:28:35.277Z,4436.00
2019-02-21T07:29:35.304Z,4544.00
2019-02-21T07:30:35.329Z,4640.00
2019-02-21T07:31:35.355Z,4728.00
2019-02-21T07:32:35.378Z,4796.00
2019-02-21T07:33:35.404Z,4880.00
2019-02-21T07:34:35.436Z,4972.00
2019-02-21T07:35:35.478Z,5056.00
2019-02-21T07:36:35.482Z,5148.00
2019-02-21T07:37:35.509Z,5224.00
2019-02-21T07:38:35.533Z,5324.00
2019-02-21T07:39:36.493Z,5432.00
2019-02-21T07:40:35.584Z,5528.00
2019-02-21T07:41:35.609Z,5616.00
2019-02-21T07:42:35.636Z,5720.00
2019-02-21T07:43:35.661Z,5864.00
2019-02-21T07:44:35.687Z,5960.00
2019-02-21T07:45:36.501Z,6032.00
2019-02-21T07:46:35.739Z,6080.00
2019-02-21T07:47:35.766Z,6076.00
2019-02-21T07:48:36.638Z,6096.00
2019-02-21T07:49:35.821Z,6160.00
2019-02-21T07:50:35.883Z,6272.00
2019-02-21T07:51:36.146Z,6488.00
2019-02-21T07:52:36.013Z,6676.00
2019-02-21T07:53:35.921Z,6832.00
2019-02-21T07:54:35.947Z,6936.00
2019-02-21T07:55:35.978Z,7076.00
2019-02-21T07:56:42.077Z,7220.00
2019-02-21T07:57:36.026Z,7356.00
2019-02-21T07:58:36.054Z,7480.00
2019-02-21T07:59:36.079Z,7596.00
2019-02-21T08:00:36.109Z,7724.00
2019-02-21T08:01:36.133Z,7844.00
2019-02-21T08:02:36.163Z,8232.00
2019-02-21T08:04:37.092Z,8964.00
2019-02-21T08:05:36.241Z,9188.00
2019-02-21T08:06:36.268Z,9552.00
2019-02-21T08:07:36.294Z,10096.00
2019-02-21T08:08:36.320Z,10540.00
2019-02-21T08:09:36.350Z,10904.00
2019-02-21T08:10:36.377Z,11220.00
2019-02-21T08:11:36.405Z,11488.00
2019-02-21T08:12:36.431Z,11784.00
2019-02-21T08:13:36.466Z,12276.00
2019-02-21T08:14:36.489Z,13372.00
2019-02-21T08:15:36.515Z,14620.00
2019-02-21T08:16:36.542Z,15616.00
2019-02-21T08:17:36.569Z,15936.00
2019-02-21T08:18:36.597Z,16064.00
2019-02-21T08:19:36.629Z,16544.00
2019-02-21T08:20:40.667Z,16832.00
2019-02-21T08:21:36.742Z,17184.00
2019-02-21T08:22:36.713Z,17600.00
2019-02-21T08:23:36.741Z,17984.00
2019-02-21T08:24:36.769Z,18496.00
2019-02-21T08:25:36.855Z,18944.00
2019-02-21T08:26:36.827Z,19328.00
2019-02-21T08:27:36.858Z,19200.00
2019-02-21T08:28:36.887Z,19264.00
2019-02-21T08:29:36.916Z,19360.00
2019-02-21T08:30:36.948Z,20000.00
2019-02-21T08:31:36.976Z,20512.00
2019-02-21T08:32:37.006Z,20896.00
2019-02-21T08:33:37.036Z,21216.00
2019-02-21T08:34:37.066Z,21600.00
2019-02-21T08:35:37.098Z,22144.00
2019-02-21T08:36:37.148Z,22944.00
2019-02-21T08:37:37.158Z,23744.00
2019-02-21T08:38:37.189Z,24000.00
2019-02-21T08:39:37.220Z,24032.00
2019-02-21T08:40:37.250Z,24032.00
2019-02-21T08:41:37.279Z,23968.00
2019-02-21T08:42:37.311Z,24640.00
2019-02-21T08:43:37.456Z,25440.00
2019-02-21T08:44:37.374Z,25536.00
2019-02-21T08:45:37.407Z,25568.00
2019-02-21T08:46:37.439Z,26048.00
2019-02-21T08:47:37.471Z,26496.00
2019-02-21T08:48:40.295Z,26368.00
2019-02-21T08:49:37.533Z,25984.00
2019-02-21T08:50:37.566Z,26464.00
2019-02-21T08:51:37.600Z,27264.00
2019-02-21T08:52:37.631Z,27392.00
2019-02-21T08:53:37.663Z,27072.00
2019-02-21T08:54:37.710Z,27328.00
2019-02-21T08:55:40.307Z,27936.00
2019-02-21T08:56:37.762Z,28896.00
2019-02-21T08:57:37.794Z,28768.00
2019-02-21T08:58:37.828Z,29216.00
2019-02-21T08:59:37.863Z,30272.00
2019-02-21T09:00:37.895Z,30880.00
2019-02-21T09:01:37.971Z,31584.00
2019-02-21T09:02:37.964Z,32576.00
2019-02-21T09:03:37.996Z,32992.00
2019-02-21T09:04:38.036Z,33056.00
2019-02-21T09:05:38.064Z,33248.00
2019-02-21T09:06:38.103Z,32320.00
2019-02-21T09:07:38.198Z,32352.00
2019-02-21T09:08:38.167Z,33344.00
2019-02-21T09:09:38.207Z,33920.00
2019-02-21T09:10:38.239Z,34176.00
2019-02-21T09:11:38.274Z,34880.00
2019-02-21T09:12:38.307Z,35488.00
2019-02-21T09:13:38.343Z,35808.00
2019-02-21T09:14:38.404Z,36640.00
2019-02-21T09:17:22.289Z,35936.00
2019-02-21T09:18:22.318Z,36544.00
2019-02-21T09:19:22.346Z,36576.00
2019-02-21T09:20:22.381Z,36384.00
2019-02-21T09:21:22.418Z,37120.00
2019-02-21T09:22:22.454Z,38144.00
2019-02-21T09:23:22.491Z,38720.00
2019-02-21T09:24:37.699Z,38688.00
2019-02-21T09:25:22.564Z,38336.00
2019-02-21T09:26:22.602Z,39520.00
2019-02-21T09:27:22.637Z,39424.00
2019-02-21T09:28:22.680Z,38688.00
2019-02-21T09:29:22.713Z,38816.00
2019-02-21T09:30:22.749Z,39488.00
2019-02-21T09:31:22.787Z,40160.00
2019-02-21T09:32:22.824Z,40416.00
2019-02-21T09:33:22.861Z,41440.00
2019-02-21T09:34:22.900Z,41568.00
2019-02-21T09:35:22.938Z,40960.00
2019-02-21T09:36:22.979Z,41184.00
2019-02-21T09:37:23.013Z,41824.00
2019-02-21T09:38:23.055Z,42048.00
2019-02-21T09:39:23.157Z,41600.00
2019-02-21T09:40:23.132Z,40480.00
2019-02-21T09:41:23.222Z,41472.00
2019-02-21T09:42:23.211Z,43936.00
2019-02-21T09:43:23.246Z,45024.00
2019-02-21T09:44:27.223Z,45728.00
2019-02-21T09:45:23.324Z,46560.00
2019-02-21T09:46:23.415Z,46592.00
2019-02-21T09:47:23.402Z,45856.00
2019-02-21T09:48:23.441Z,47936.00
2019-02-21T09:49:23.482Z,49568.00
2019-02-21T09:50:23.522Z,49856.00
2019-02-21T09:51:23.561Z,48704.00
2019-02-21T09:52:23.603Z,42464.00
2019-02-21T09:53:23.641Z,37024.00
2019-02-21T09:54:24.221Z,36544.00
2019-02-21T09:55:23.761Z,36160.00
2019-02-21T09:56:30.423Z,36064.00
2019-02-21T09:57:23.804Z,36224.00
2019-02-21T09:58:23.848Z,36288.00
2019-02-21T09:59:23.885Z,36544.00
2019-02-21T10:00:23.957Z,36960.00
2019-02-21T10:01:23.969Z,37792.00
2019-02-21T10:02:24.011Z,40768.00
2019-02-21T10:03:24.060Z,47808.00
2019-02-21T10:04:31.884Z,53088.00
2019-02-21T10:05:24.138Z,52480.00
2019-02-21T10:06:24.179Z,52160.00
2019-02-21T10:07:24.220Z,53568.00
2019-02-21T10:08:24.261Z,54880.00
2019-02-21T10:09:24.304Z,55456.00
2019-02-21T10:10:24.347Z,55840.00
2019-02-21T10:11:24.389Z,55872.00
2019-02-21T10:12:24.433Z,54688.00
2019-02-21T10:13:24.473Z,54848.00
2019-02-21T10:14:24.519Z,55552.00
2019-02-21T10:15:24.559Z,56192.00
2019-02-21T10:16:24.603Z,56160.00
2019-02-21T10:17:24.647Z,57344.00
2019-02-21T10:18:24.690Z,57280.00
2019-02-21T10:19:24.732Z,57376.00
2019-02-21T10:20:24.790Z,57728.00
2019-02-21T10:21:24.842Z,56320.00
2019-02-21T10:22:26.138Z,56096.00
2019-02-21T10:23:24.905Z,55872.00
2019-02-21T10:24:24.950Z,56512.00
2019-02-21T10:25:24.994Z,57408.00
2019-02-21T10:26:25.038Z,58272.00
2019-02-21T10:27:25.082Z,58112.00
2019-02-21T10:28:25.125Z,57216.00
2019-02-21T10:29:25.170Z,56800.00
2019-02-21T10:31:25.285Z,55008.00
2019-02-21T10:32:25.303Z,52512.00
2019-02-21T10:33:28.981Z,53824.00
2019-02-21T10:34:25.391Z,54944.00
2019-02-21T10:35:25.435Z,56576.00
2019-02-21T10:36:25.479Z,57920.00
2019-02-21T10:37:25.524Z,55616.00
2019-02-21T10:38:25.569Z,53152.00
2019-02-21T10:39:25.613Z,52288.00
2019-02-21T10:40:25.666Z,53056.00
2019-02-21T10:41:25.707Z,56128.00
2019-02-21T10:42:25.750Z,57856.00
2019-02-21T10:43:25.793Z,56128.00
2019-02-21T10:44:25.837Z,56704.00
2019-02-21T10:45:25.885Z,57024.00
2019-02-21T10:46:25.929Z,57152.00
2019-02-21T10:47:25.974Z,57024.00
2019-02-21T10:48:26.020Z,56128.00
2019-02-21T10:49:26.066Z,56832.00
2019-02-21T10:50:26.115Z,58880.00
2019-02-21T10:51:26.157Z,59744.00
2019-02-21T10:52:26.210Z,60032.00
2019-02-21T10:53:26.248Z,61568.00
2019-02-21T10:54:26.297Z,66560.00
2019-02-21T10:55:26.341Z,66944.00
2019-02-21T10:56:26.424Z,67744.00
2019-02-21T10:57:26.432Z,68640.00
2019-02-21T10:58:26.479Z,67392.00
2019-02-21T10:59:26.525Z,72672.00
2019-02-21T11:00:26.570Z,74176.00
2019-02-21T11:01:26.617Z,74592.00
2019-02-21T11:02:26.663Z,74784.00
2019-02-21T11:03:26.712Z,72896.00
2019-02-21T11:04:26.755Z,73120.00
2019-02-21T11:05:27.035Z,73632.00
2019-02-21T11:06:26.899Z,73664.00
2019-02-21T11:07:26.894Z,73856.00
2019-02-21T11:08:26.940Z,71968.00
2019-02-21T11:09:29.608Z,75200.00
2019-02-21T11:10:27.035Z,74944.00
2019-02-21T11:11:27.081Z,73984.00
2019-02-21T11:12:27.126Z,76768.00
2019-02-21T11:13:27.245Z,79488.00
2019-02-21T11:14:27.220Z,78336.00
2019-02-21T11:15:27.265Z,73408.00
2019-02-21T11:16:27.311Z,72416.00
2019-02-21T11:17:27.359Z,74304.00
2019-02-21T11:18:27.406Z,75648.00
2019-02-21T11:19:27.452Z,80320.00
2019-02-21T11:20:27.499Z,84736.00
2019-02-21T11:21:27.550Z,83744.00
2019-02-21T11:22:27.594Z,82048.00
2019-02-21T11:23:27.639Z,80576.00
2019-02-21T11:24:27.686Z,82208.00
2019-02-21T11:25:27.734Z,84768.00
2019-02-21T11:26:27.781Z,87200.00
2019-02-21T11:27:27.827Z,86432.00
2019-02-21T11:28:27.874Z,83616.00
2019-02-21T11:29:27.924Z,85216.00
2019-02-21T11:30:27.972Z,86912.00
2019-02-21T11:31:28.080Z,85472.00
2019-02-21T11:32:28.064Z,85056.00
2019-02-21T11:33:28.111Z,84832.00
2019-02-21T11:34:28.158Z,83328.00
2019-02-21T11:35:28.206Z,81280.00
2019-02-21T11:36:28.251Z,81632.00
2019-02-21T11:37:28.304Z,82784.00
2019-02-21T11:38:28.348Z,84224.00
2019-02-21T11:39:28.394Z,84096.00
2019-02-21T11:40:28.444Z,84704.00
2019-02-21T11:41:28.488Z,87168.00
2019-02-21T11:42:28.536Z,88320.00
2019-02-21T11:43:28.582Z,90048.00
2019-02-21T11:44:28.631Z,90112.00
2019-02-21T11:45:28.684Z,91872.00
2019-02-21T11:46:28.725Z,89184.00
2019-02-21T11:47:28.773Z,86400.00
2019-02-21T11:48:28.821Z,85728.00
2019-02-21T11:49:28.869Z,86944.00
2019-02-21T11:50:28.915Z,88352.00
2019-02-21T11:51:28.963Z,89856.00
2019-02-21T11:52:29.012Z,88992.00
2019-02-21T11:53:29.058Z,87776.00
2019-02-21T11:54:29.108Z,89024.00
2019-02-21T11:55:29.154Z,89920.00
2019-02-21T11:56:29.201Z,93984.00
2019-02-21T11:57:29.251Z,95584.00
2019-02-21T11:58:29.347Z,91008.00
2019-02-21T11:59:29.345Z,82944.00
2019-02-21T12:00:29.394Z,88000.00
2019-02-21T12:01:29.442Z,94112.00
2019-02-21T12:02:38.615Z,92128.00
2019-02-21T12:03:29.554Z,90016.00
2019-02-21T12:04:29.585Z,88768.00
2019-02-21T12:05:31.909Z,89824.00
2019-02-21T12:06:29.682Z,90624.00
2019-02-21T12:07:29.728Z,89984.00
2019-02-21T12:08:29.826Z,89280.00
2019-02-21T12:09:29.826Z,89888.00
2019-02-21T12:10:29.878Z,89888.00
2019-02-21T12:11:29.922Z,89920.00
2019-02-21T12:12:30.771Z,89280.00
2019-02-21T12:13:30.018Z,89920.00
2019-02-21T12:14:30.067Z,91552.00
2019-02-21T12:15:30.115Z,91488.00
2019-02-21T12:16:30.249Z,90208.00
2019-02-21T12:17:30.213Z,90752.00
2019-02-21T12:18:30.271Z,90912.00
2019-02-21T12:19:30.309Z,89696.00
2019-02-21T12:20:30.358Z,89600.00
2019-02-21T12:21:30.406Z,90528.00
2019-02-21T12:22:30.455Z,92000.00
2019-02-21T12:23:30.504Z,94144.00
2019-02-21T12:24:30.553Z,94368.00
2019-02-21T12:25:30.600Z,94944.00
2019-02-21T12:26:30.650Z,96000.00
2019-02-21T12:27:30.696Z,95328.00
2019-02-21T12:28:30.746Z,95104.00
2019-02-21T12:29:30.796Z,94080.00
2019-02-21T12:30:33.325Z,94432.00
2019-02-21T12:31:30.892Z,96320.00
2019-02-21T12:32:30.942Z,97440.00
2019-02-21T12:33:30.992Z,98368.00
2019-02-21T12:34:31.091Z,98592.00
2019-02-21T12:35:31.089Z,99008.00
2019-02-21T12:36:31.139Z,100000.00
2019-02-21T12:37:31.190Z,97856.00
2019-02-21T12:38:31.236Z,98304.00
2019-02-21T12:39:31.284Z,82944.00
2019-02-21T12:40:31.339Z,41472.00
2019-02-21T12:41:31.383Z,34976.00
2019-02-21T12:42:31.433Z,46880.00
2019-02-21T12:43:31.489Z,54464.00